Flight Track Log - Related Links

Times and Time Zones

All times are in EDT time to prevent confusion due to time zone crossing. See the CPZ5750 flight status page for this flight to view local times or setup timezone preferences in your user account.

Time Position Orientation Groundspeed Altitude Reporting Facility
EDT Latitude Longitude Course Direction KTS MPH feet Rate Location/Type
Thu 07:50:59 PM 39.7000 -86.3167 218° Southwest 169 194 1,300  Level Indianapolis TRACON
Thu 07:51:29 PM 39.6833 -86.3333 218° Southwest 167 192 2,300 1,899 Climbing Indianapolis TRACON
Thu 07:52:18 PM 39.6642 -86.3706 236° Southwest 180 207 3,800 2,378 Climbing Indianapolis Center
Thu 07:53:20 PM 39.6303 -86.4411 238° Southwest 238 274 6,700 3,317 Climbing Indianapolis Center
Thu 07:54:21 PM 39.7125 -86.4733 343° North 268 308 10,600 2,634 Climbing Indianapolis Center
Thu 07:55:23 PM 39.8022 -86.4825 356° North 317 365 12,100 1,984 Climbing Indianapolis Center
Thu 07:56:25 PM 39.8986 -86.4903 356° North 342 394 14,700 2,341 Climbing Indianapolis Center
Thu 07:57:26 PM 39.9939 -86.5278 343° North 359 413 16,900 2,098 Climbing Indianapolis Center
Thu 07:58:28 PM 40.0906 -86.5792 338° Northwest 369 425 19,000 1,967 Climbing Indianapolis Center
Thu 07:59:28 PM 40.1883 -86.6325 337° Northwest 379 436 20,900 1,820 Climbing Chicago Center
Thu 08:00:30 PM 40.2914 -86.6881 338° Northwest 397 457 22,700 1,776 Climbing Chicago Center
Thu 08:01:33 PM 40.3961 -86.7433 338° Northwest 405 466 24,600 1,776 Climbing Chicago Center
Thu 08:02:35 PM 40.5239 -86.8128 338° Northwest 415 478 26,400 1,548 Climbing Chicago Center
Thu 08:03:37 PM 40.6311 -86.8717 337° Northwest 418 481 27,800 1,210 Climbing Chicago Center
Thu 08:04:39 PM 40.7308 -86.9267 337° Northwest 428 493 28,900 1,355 Climbing Chicago Center
Thu 08:05:41 PM 40.8619 -86.9978 338° Northwest 425 489 30,600 1,452 Climbing Chicago Center
Thu 08:06:43 PM 40.9708 -87.0542 339° North 423 487 31,900 1,258 Climbing Chicago Center
Thu 08:07:45 PM 41.0756 -87.1122 337° Northwest 415 478 33,200 1,016 Climbing Chicago Center
Thu 08:08:47 PM 41.1783 -87.1714 337° Northwest 409 471 34,000 387 Climbing Chicago Center
Thu 08:09:49 PM 41.2819 -87.2308 337° Northwest 409 471 34,000  Level Chicago Center
Thu 08:10:51 PM 41.4058 -87.2989 338° Northwest 406 467 34,000  Level Chicago Center
Thu 08:11:53 PM 41.5092 -87.3581 337° Northwest 408 470 34,000  Level Chicago Center
Thu 08:12:55 PM 41.6144 -87.4167 337° Northwest 411 473 34,000  Level Chicago Center
Thu 08:13:58 PM 41.7208 -87.4767 337° Northwest 417 480 34,000  Level Chicago Center
Thu 08:15:00 PM 41.8483 -87.5492 337° Northwest 418 481 34,000  Level Chicago Center
Thu 08:16:02 PM 41.9539 -87.6100 337° Northwest 418 481 34,000  Level Chicago Center
Thu 08:17:04 PM 42.0603 -87.6711 337° Northwest 419 482 34,000  Level Chicago Center
Thu 08:18:06 PM 42.1669 -87.7314 337° Northwest 419 482 34,000  Level Chicago Center
Thu 08:19:08 PM 42.2708 -87.7931 336° Northwest 414 476 34,000  Level Chicago Center
Thu 08:20:10 PM 42.3928 -87.8625 337° Northwest 401 461 34,000  Level Chicago Center
Thu 08:21:12 PM 42.4956 -87.9219 337° Northwest 404 465 34,000  Level Chicago Center
Thu 08:22:14 PM 42.5961 -87.9800 337° Northwest 398 458 34,000  Level Chicago Center
Thu 08:23:16 PM 42.6964 -88.0383 337° Northwest 397 457 34,000  Level Chicago Center
Thu 08:24:18 PM 42.7983 -88.0969 337° Northwest 399 459 34,000  Level Chicago Center
Thu 08:25:20 PM 42.9125 -88.1656 336° Northwest 396 456 34,000  Level Chicago Center
Thu 08:26:22 PM 43.0147 -88.2244 337° Northwest 399 459 34,000  Level Chicago Center
Thu 08:27:25 PM 43.1192 -88.2822 338° Northwest 403 464 34,000  Level Chicago Center
Thu 08:28:27 PM 43.2222 -88.3406 338° Northwest 402 463 34,000  Level Chicago Center
Thu 08:29:29 PM 43.3078 -88.4653 313° West 407 468 34,000  Level Chicago Center
Thu 08:30:31 PM 43.3736 -88.5894 306° West 402 463 34,000  Level Chicago Center
Thu 08:31:33 PM 43.4417 -88.7186 306° West 412 474 34,000  Level Chicago Center
Thu 08:32:35 PM 43.5139 -88.8578 306° West 411 473 34,000  Level Chicago Center
Thu 08:33:37 PM 43.5811 -88.9861 306° West 415 478 34,000  Level Chicago Center
Thu 08:34:39 PM 43.6472 -89.1133 306° West 413 475 34,000  Level Chicago Center
Thu 08:35:41 PM 43.7250 -89.2681 305° West 412 474 34,000  Level Chicago Center
Thu 08:36:43 PM 43.7914 -89.3972 305° West 415 478 34,000  Level Chicago Center
Thu 08:37:45 PM 43.8575 -89.5261 305° West 417 480 34,000  Level Chicago Center
Thu 08:38:47 PM 43.9203 -89.6575 304° West 415 478 34,000  Level Chicago Center
Thu 08:39:50 PM 43.9806 -89.7928 302° West 415 478 34,000  Level Chicago Center
Thu 08:40:52 PM 44.0519 -89.9531 302° West 411 473 34,000  Level Chicago Center
Thu 08:41:54 PM 44.1125 -90.0892 302° West 414 476 34,000  Level Chicago Center
Thu 08:42:24 PM 44.1389 -90.1467 303° West 421 484 34,000  Level Minneapolis Center
Thu 08:43:26 PM 44.2106 -90.3114 301° West 419 482 34,000  Level Minneapolis Center
Thu 08:44:28 PM 44.2714 -90.4503 301° West 425 489 34,000  Level Minneapolis Center
Thu 08:45:31 PM 44.3314 -90.5889 301° West 420 483 34,000  Level Minneapolis Center
Thu 08:46:33 PM 44.3928 -90.7286 302° West 423 487 34,000  Level Minneapolis Center
Thu 08:47:35 PM 44.4650 -90.8969 301° West 423 487 34,000 -726 Level Minneapolis Center
Thu 08:48:37 PM 44.5256 -91.0347 302° West 418 481 32,500 -2,090 Descending Minneapolis Center
Thu 08:50:10 PM 44.6203 -91.2728 299° West 431 496 28,600 -2,426 Descending Chicago Center
Thu 08:50:53 PM 44.6592 -91.3503 305° West 432 497 27,000 -2,343 Descending Minneapolis Center
Thu 08:51:55 PM 44.7186 -91.4925 301° West 427 491 24,500 -2,323 Descending Minneapolis Center
Thu 08:52:57 PM 44.7758 -91.6289 301° West 414 476 22,200 -2,468 Descending Minneapolis Center
Thu 08:53:59 PM 44.8431 -91.7886 301° West 401 461 19,400 -2,323 Descending Minneapolis Center
Thu 08:55:01 PM 44.8961 -91.9150 301° West 382 440 17,400 -2,016 Descending Minneapolis Center
Thu 08:56:04 PM 44.9456 -92.0361 300° West 361 415 15,200 -2,064 Descending Minneapolis Center
Thu 08:57:06 PM 44.9950 -92.1553 300° West 352 405 13,100 -1,984 Descending Minneapolis Center
Thu 08:58:08 PM 45.0397 -92.2756 298° West 348 400 11,100 -1,016 Descending Minneapolis Center
Thu 08:59:10 PM 45.0267 -92.4347 263° West 345 397 11,000 -48 Descending Minneapolis Center
Thu 09:00:12 PM 45.0056 -92.5672 257° West 347 399 11,000  Level Minneapolis Center
Thu 09:01:13 PM 44.9897 -92.6714 258° West 343 395 11,000  Level Minneapolis Center
Thu 09:02:16 PM 44.9678 -92.8036 257° West 292 336 11,000 -240 Level Minneapolis Center
Thu 09:03:18 PM 44.9497 -92.9122 257° West 287 330 10,500 -1,016 Descending Minneapolis Center
Thu 09:04:20 PM 44.9319 -93.0208 257° West 286 329 8,900 -1,210 Descending Minneapolis Center
Thu 09:05:22 PM 44.9564 -93.1303 288° West 252 290 8,000 -882 Descending Minneapolis Center
Thu 09:06:36 PM 44.9897 -93.2061 302° West 230 265 6,900 -1,314 Descending Minneapolis Center
Thu 09:07:39 PM 45.0394 -93.2844 312° West 224 258 5,000 -1,392 Descending Minneapolis Center
Thu 09:08:41 PM 45.0681 -93.3511 301° West 210 242 4,000 -581 Descending Minneapolis Center
Thu 09:09:43 PM 45.0175 -93.3611 188° South 181 208 3,800 -484 Descending Minneapolis Center
Thu 09:10:45 PM 44.9742 -93.3353 157° South 170 196 3,000 -662 Descending Minneapolis Center
Thu 09:11:59 PM 44.9339 -93.3094 156° South 160 184 2,300 -608 Descending Minneapolis Center
Thu 09:13:13 PM 44.9111 -93.2628 125° Southeast 119 137 1,500 -649 Descending Minneapolis Center

Login

Don't have an account? Register now (free) for customized features, flight alerts, and more!